Dayton, Washington
Current Conditions -  °F | °C
As of 1:53 AM on Sunday 25 Jan 2015 (Local Time) from KALW Reporting Station
Haze Haze  
Wind Chill: 36°   Ceiling: Unl
Heat Index: 40°   Visibility: 4mi
Dew Point: 37°   Wind: 6mph
Humidity: 89%   Direction: 170°S
Pressure: 30.24"   Gusts: NA
Location:  46.32°N, 117.97°W
Report Text: KALW 250953Z AUTO 17005KT 4SM BR CLR 04/03 A3024 RMK AO2 SLP245 T00440028
Loading
Personal Weather Stations






























Interactive Weather Map New forecast layout! Learn more

10-Day Weather Forecast

Advertisements
Track Severe Weather on mobile